createdAt,value
2018-07-27T04:20:45.195Z,21.10
2018-07-27T04:23:21.821Z,21.20
2018-07-27T04:25:52.036Z,21.30
2018-07-27T04:28:22.889Z,21.40
2018-07-27T04:30:54.564Z,21.50
2018-07-27T04:33:24.820Z,21.60
2018-07-27T04:35:55.521Z,21.60
2018-07-27T04:38:26.138Z,21.70
2018-07-27T04:58:15.959Z,22.30
2018-07-27T05:00:47.144Z,22.40
2018-07-27T05:03:16.685Z,22.50
2018-07-27T05:05:46.815Z,22.50
2018-07-27T05:08:19.230Z,22.50
2018-07-27T05:10:49.629Z,22.50
2018-07-27T05:13:19.755Z,22.60
2018-07-27T05:15:50.682Z,22.70
2018-07-27T05:18:41.907Z,22.70
2018-07-27T05:21:12.619Z,22.60
2018-07-27T05:23:43.667Z,22.50
2018-07-27T05:26:15.591Z,22.50
2018-07-27T05:28:46.838Z,22.50
2018-07-27T05:31:17.738Z,22.50
2018-07-27T05:33:48.735Z,22.50
2018-07-27T05:36:20.356Z,22.50
2018-07-27T05:41:56.568Z,22.60
2018-07-27T05:44:27.713Z,22.80
2018-07-27T05:46:59.836Z,22.80
2018-07-27T05:49:29.973Z,22.80
2018-07-27T05:52:01.328Z,22.90
2018-07-27T05:54:31.935Z,23.00
2018-07-27T05:57:01.835Z,23.10
2018-07-27T05:59:31.887Z,23.20
2018-07-27T06:07:55.707Z,23.30
2018-07-27T06:10:26.432Z,23.40
2018-07-27T06:12:56.402Z,23.40
2018-07-27T06:15:26.016Z,23.40
2018-07-27T06:17:56.533Z,23.40
2018-07-27T06:20:27.439Z,23.50
2018-07-27T06:22:57.407Z,23.50
2018-07-27T06:25:27.882Z,23.50
2018-07-27T06:27:57.781Z,23.50
2018-07-27T06:30:27.654Z,23.60
2018-07-27T06:32:56.390Z,23.60
2018-07-27T06:35:27.352Z,23.70
2018-07-27T06:37:57.436Z,23.70
2018-07-27T06:43:07.400Z,23.90
2018-07-27T06:45:36.520Z,24.00
2018-07-27T06:48:06.416Z,24.20
2018-07-27T06:50:35.513Z,24.30
2018-07-27T06:53:05.341Z,24.30
2018-07-27T06:55:35.852Z,24.50
2018-07-27T06:58:05.691Z,24.50
2018-07-27T07:00:35.050Z,24.50
2018-07-27T07:03:17.762Z,24.50
2018-07-27T07:05:48.194Z,24.50
2018-07-27T07:08:18.273Z,24.50
2018-07-27T07:10:48.461Z,24.50
2018-07-27T07:13:18.554Z,24.60
2018-07-27T07:15:48.225Z,24.60
2018-07-27T07:18:17.460Z,24.70
2018-07-27T07:20:48.006Z,24.80
2018-07-27T07:23:17.240Z,24.90
2018-07-27T07:25:46.659Z,24.90
2018-07-27T07:28:16.420Z,24.90
2018-07-27T07:30:46.087Z,24.80
2018-07-27T07:33:15.824Z,24.80
2018-07-27T07:35:46.580Z,24.90
2018-07-27T07:38:16.556Z,24.80
2018-07-27T07:40:46.632Z,24.80
2018-07-27T07:43:17.013Z,24.80
2018-07-27T07:45:47.316Z,24.80
2018-07-27T07:48:17.024Z,24.80
2018-07-27T07:50:47.109Z,24.90
2018-07-27T07:53:17.357Z,25.00
2018-07-27T07:55:47.719Z,25.00
2018-07-27T07:58:17.267Z,25.10
2018-07-27T08:00:46.481Z,25.20
2018-07-27T08:03:15.935Z,25.20
2018-07-27T08:05:44.954Z,25.30
2018-07-27T08:08:14.567Z,25.30
2018-07-27T08:10:44.332Z,25.40
2018-07-27T08:13:13.820Z,25.40
2018-07-27T08:15:44.090Z,25.50
2018-07-27T08:18:14.112Z,25.40
2018-07-27T08:20:45.344Z,25.50
2018-07-27T08:23:16.256Z,25.60
2018-07-27T08:26:50.022Z,25.70
2018-07-27T08:29:20.866Z,25.80
2018-07-27T08:31:51.143Z,25.90
2018-07-27T08:34:21.150Z,25.90
2018-07-27T08:36:51.356Z,25.90
2018-07-27T08:39:22.514Z,26.00
2018-07-27T08:41:52.740Z,26.10
2018-07-27T08:44:23.496Z,26.10
2018-07-27T08:46:53.730Z,26.20
2018-07-27T08:49:23.525Z,26.40
2018-07-27T08:51:53.816Z,26.40
2018-07-27T08:54:24.109Z,26.40
2018-07-27T08:56:54.187Z,26.50
2018-07-27T08:59:24.109Z,26.60
2018-07-27T09:01:54.390Z,26.60
2018-07-27T09:04:24.577Z,26.60
2018-07-27T09:06:54.092Z,26.60
2018-07-27T09:09:24.210Z,26.60
2018-07-27T09:11:53.827Z,26.60
2018-07-27T09:14:23.586Z,26.70
2018-07-27T09:16:53.356Z,26.70
2018-07-27T09:19:23.287Z,26.70
2018-07-27T09:21:53.299Z,26.80
2018-07-27T09:24:23.389Z,26.90
2018-07-27T09:26:53.666Z,26.90
2018-07-27T09:29:24.016Z,27.00
2018-07-27T09:31:54.254Z,27.10
2018-07-27T09:34:24.076Z,27.20
2018-07-27T09:36:54.928Z,27.20
2018-07-27T09:39:25.268Z,27.20
2018-07-27T09:41:54.854Z,27.20
2018-07-27T09:44:24.972Z,27.20
2018-07-27T09:46:54.732Z,27.30
2018-07-27T09:49:24.678Z,27.50
2018-07-27T09:51:54.777Z,27.60
2018-07-27T09:54:24.896Z,27.50
2018-07-27T09:56:54.438Z,27.50
2018-07-27T09:59:24.601Z,27.70
2018-07-27T10:01:54.296Z,27.90
2018-07-27T10:04:24.163Z,28.00
2018-07-27T10:06:54.617Z,28.00
2018-07-27T10:09:24.612Z,28.10
2018-07-27T10:11:54.423Z,27.90
2018-07-27T10:14:25.097Z,27.90
2018-07-27T10:16:55.000Z,27.90
2018-07-27T10:19:24.832Z,27.90
2018-07-27T10:21:53.536Z,27.90
2018-07-27T10:24:23.762Z,28.10
2018-07-27T10:26:53.756Z,28.30
2018-07-27T10:29:24.149Z,28.40
2018-07-27T10:31:54.557Z,28.30
2018-07-27T10:34:27.068Z,28.40
2018-07-27T10:36:57.947Z,28.50
2018-07-27T10:39:28.600Z,28.60
2018-07-27T10:41:58.098Z,28.60
2018-07-27T10:44:29.007Z,28.60
2018-07-27T10:46:58.920Z,28.60
2018-07-27T10:49:28.980Z,28.60
2018-07-27T10:52:03.912Z,28.60
2018-07-27T10:54:33.624Z,28.70
2018-07-27T10:57:03.180Z,28.70
2018-07-27T10:59:34.549Z,28.70
2018-07-27T11:02:04.245Z,28.70
2018-07-27T11:04:34.042Z,28.70
2018-07-27T11:07:03.851Z,28.80
2018-07-27T11:09:33.921Z,28.90
2018-07-27T11:12:03.875Z,28.80
2018-07-27T11:14:34.140Z,28.90
2018-07-27T11:17:04.056Z,29.00
2018-07-27T11:19:34.600Z,29.00
2018-07-27T11:22:04.168Z,29.30
2018-07-27T11:24:33.883Z,29.60
2018-07-27T11:27:04.052Z,29.80
2018-07-27T11:29:34.143Z,30.00
2018-07-27T11:32:03.907Z,30.10
2018-07-27T11:34:34.080Z,30.20
2018-07-27T11:37:03.503Z,30.40
2018-07-27T11:39:34.783Z,30.50
2018-07-27T11:42:05.234Z,30.60
2018-07-27T11:44:35.519Z,30.80
2018-07-27T11:47:06.951Z,30.80
2018-07-27T11:49:37.528Z,30.70
2018-07-27T11:52:08.084Z,30.70
2018-07-27T11:54:37.847Z,30.70
2018-07-27T11:57:07.906Z,30.50
2018-07-27T11:59:38.460Z,30.50
2018-07-27T12:02:08.244Z,30.60
2018-07-27T12:04:38.259Z,30.60
2018-07-27T12:07:08.265Z,30.70
2018-07-27T12:09:37.234Z,30.90
2018-07-27T12:12:08.003Z,31.00
2018-07-27T12:14:39.382Z,31.00
2018-07-27T12:17:10.151Z,30.90
2018-07-27T12:19:39.903Z,30.80
2018-07-27T12:22:09.043Z,30.80
2018-07-27T12:24:38.182Z,30.90
2018-07-27T12:27:08.101Z,30.90
2018-07-27T12:29:39.147Z,31.10
2018-07-27T12:32:08.015Z,31.20
2018-07-27T12:34:38.099Z,31.20
2018-07-27T12:37:10.646Z,31.20
2018-07-27T12:39:41.668Z,31.30
2018-07-27T12:42:12.698Z,31.40
2018-07-27T12:44:43.803Z,31.50
2018-07-27T12:47:13.935Z,31.40
2018-07-27T12:49:44.828Z,31.30
2018-07-27T12:52:18.754Z,31.20
2018-07-27T12:54:49.860Z,31.20
2018-07-27T12:57:21.851Z,31.20
2018-07-27T12:59:52.300Z,31.40
2018-07-27T13:02:21.979Z,31.40
2018-07-27T13:04:52.591Z,31.40
2018-07-27T13:07:24.147Z,31.50
2018-07-27T13:10:02.098Z,31.50
2018-07-27T13:12:32.031Z,31.30
2018-07-27T13:15:02.874Z,31.40
2018-07-27T13:17:34.027Z,31.40
2018-07-27T13:20:05.078Z,31.40
2018-07-27T13:22:35.113Z,31.40
2018-07-27T13:25:05.138Z,31.40
2018-07-27T13:27:34.775Z,31.40
2018-07-27T13:30:04.079Z,31.50
2018-07-27T13:32:35.138Z,31.50
2018-07-27T13:35:04.869Z,31.50
2018-07-27T13:37:35.212Z,31.40
2018-07-27T13:40:07.107Z,31.10
2018-07-27T13:42:37.863Z,31.20
2018-07-27T13:45:08.103Z,31.20
2018-07-27T13:47:37.984Z,31.40
2018-07-27T13:50:08.088Z,31.40
2018-07-27T13:52:37.732Z,31.20
2018-07-27T13:55:08.735Z,31.20
2018-07-27T13:57:38.456Z,31.20
2018-07-27T14:00:08.083Z,31.20
2018-07-27T14:02:38.782Z,31.10
2018-07-27T14:05:09.871Z,31.10
2018-07-27T14:07:39.834Z,31.00
2018-07-27T14:10:10.746Z,31.10
2018-07-27T14:12:40.938Z,31.10
2018-07-27T14:15:10.858Z,31.10
2018-07-27T14:17:41.123Z,31.10
2018-07-27T14:20:12.655Z,31.10
2018-07-27T14:22:42.773Z,31.10
2018-07-27T14:25:12.952Z,31.00
2018-07-27T14:27:43.291Z,30.90
2018-07-27T14:30:13.092Z,30.90
2018-07-27T14:32:43.595Z,30.90
2018-07-27T14:35:13.919Z,30.90
2018-07-27T14:37:43.724Z,31.00
2018-07-27T14:40:15.328Z,30.90
2018-07-27T14:42:44.767Z,30.80
2018-07-27T14:45:15.134Z,30.80
2018-07-27T14:47:44.947Z,30.80
2018-07-27T14:50:14.795Z,30.80
2018-07-27T14:52:44.721Z,30.80
2018-07-27T14:55:14.811Z,30.80
2018-07-27T14:57:45.203Z,30.80
2018-07-27T15:00:14.582Z,30.80
2018-07-27T15:02:44.126Z,30.80
2018-07-27T15:05:13.636Z,30.70
2018-07-27T15:07:43.687Z,30.70
2018-07-27T15:10:13.547Z,30.70
2018-07-27T15:12:43.455Z,30.70
2018-07-27T15:15:13.134Z,30.70
2018-07-27T15:17:43.004Z,30.80
2018-07-27T15:20:14.544Z,30.80
2018-07-27T15:22:44.700Z,30.80
2018-07-27T15:25:14.640Z,30.60
2018-07-27T15:27:45.383Z,30.50
2018-07-27T15:30:15.516Z,30.40
2018-07-27T15:32:44.695Z,30.30
2018-07-27T15:35:13.991Z,30.10
2018-07-27T15:37:43.828Z,30.00
2018-07-27T15:40:13.429Z,30.00
2018-07-27T15:42:43.457Z,30.00
2018-07-27T15:45:13.617Z,30.00
2018-07-27T15:47:43.120Z,30.00
2018-07-27T15:50:12.820Z,30.00
2018-07-27T15:52:42.623Z,30.10
2018-07-27T15:55:12.728Z,30.10
2018-07-27T15:57:43.009Z,30.20
2018-07-27T16:00:12.752Z,30.10
2018-07-27T16:02:42.543Z,30.10
2018-07-27T16:05:12.305Z,30.20
2018-07-27T16:07:42.484Z,30.20
2018-07-27T16:10:13.271Z,30.10
2018-07-27T16:12:43.352Z,30.20
2018-07-27T16:15:13.444Z,30.30
2018-07-27T16:17:43.511Z,30.90
2018-07-27T16:20:14.723Z,32.10
2018-07-27T16:22:45.591Z,33.20
2018-07-27T16:25:15.688Z,33.90
2018-07-27T16:27:45.415Z,34.60
2018-07-27T16:30:17.281Z,34.80
2018-07-27T16:32:48.748Z,35.00
2018-07-27T16:35:18.564Z,35.20
2018-07-27T16:37:49.259Z,35.10
2018-07-27T16:40:18.930Z,35.10
2018-07-27T16:42:49.192Z,35.20
2018-07-27T16:45:19.661Z,35.00
2018-07-27T16:47:50.536Z,35.10
2018-07-27T16:50:21.603Z,34.90
2018-07-27T16:52:52.048Z,35.50
2018-07-27T16:55:24.436Z,35.70
2018-07-27T16:57:54.619Z,35.20
2018-07-27T17:00:24.700Z,35.30
2018-07-27T17:05:29.696Z,35.20
2018-07-27T17:07:59.339Z,35.40
2018-07-27T17:10:30.387Z,34.70
2018-07-27T17:13:00.563Z,34.60
2018-07-27T17:15:31.115Z,34.80
2018-07-27T17:18:02.125Z,35.30
2018-07-27T17:20:37.784Z,35.40
2018-07-27T17:23:07.789Z,34.70
2018-07-27T17:25:39.331Z,34.80
2018-07-27T17:28:10.240Z,34.80
2018-07-27T17:30:40.836Z,34.40
2018-07-27T17:33:13.567Z,34.40
2018-07-27T17:35:44.623Z,34.20
2018-07-27T17:38:16.145Z,33.80
2018-07-27T17:40:46.283Z,33.80
2018-07-27T17:43:15.207Z,33.60
2018-07-27T17:45:45.940Z,33.70
2018-07-27T17:48:15.525Z,33.80
2018-07-27T17:50:44.863Z,33.90
2018-07-27T17:53:15.744Z,33.40
2018-07-27T17:55:45.302Z,33.30
2018-07-27T17:58:16.285Z,33.30
2018-07-27T18:00:47.311Z,33.50
2018-07-27T18:03:18.841Z,33.10
2018-07-27T18:05:49.911Z,32.10
2018-07-27T18:08:19.244Z,31.00
2018-07-27T18:10:49.827Z,30.00
2018-07-27T18:13:19.678Z,29.40
2018-07-27T18:16:10.084Z,28.90
2018-07-27T18:43:40.628Z,27.00
2018-07-27T18:46:26.245Z,26.80
2018-07-27T18:48:59.094Z,26.70
2018-07-27T18:54:21.654Z,26.50
2018-07-27T18:57:06.564Z,26.40
2018-07-27T18:59:38.197Z,26.30
2018-07-27T19:07:55.567Z,25.90
2018-07-27T19:10:47.394Z,25.80
2018-07-27T19:13:31.993Z,25.70
2018-07-27T19:16:09.946Z,25.60
2018-07-27T19:18:50.510Z,25.50
2018-07-27T19:21:29.543Z,25.40
2018-07-27T19:24:02.377Z,25.30
2018-07-27T19:26:39.718Z,25.20
2018-07-27T19:29:16.530Z,25.10
2018-07-27T19:31:49.480Z,25.00
2018-07-27T19:34:20.648Z,25.00
2018-07-27T19:36:52.856Z,24.80
2018-07-27T19:39:23.998Z,24.70
2018-07-27T19:41:53.692Z,24.70
2018-07-27T19:44:25.456Z,24.60
2018-07-27T19:47:03.905Z,24.50
2018-07-27T19:49:36.040Z,24.40
2018-07-27T19:52:06.479Z,24.30
2018-07-27T19:54:37.788Z,24.20
2018-07-27T19:57:06.892Z,24.10
2018-07-27T19:59:36.337Z,24.00
2018-07-27T20:02:06.636Z,24.00
2018-07-27T20:04:36.193Z,23.90
2018-07-27T20:07:05.766Z,23.80
2018-07-27T20:09:34.898Z,23.70
2018-07-27T20:12:04.302Z,23.70
2018-07-27T20:14:33.781Z,23.60
2018-07-27T20:17:02.889Z,23.50
2018-07-27T20:19:32.900Z,23.50
2018-07-27T20:22:01.909Z,23.40
2018-07-27T20:24:32.047Z,23.30
2018-07-27T20:27:01.393Z,23.30
2018-07-27T20:29:30.509Z,23.20
2018-07-27T20:31:59.472Z,23.20
2018-07-27T20:34:28.930Z,23.10
2018-07-27T20:36:58.783Z,23.10
2018-07-27T20:39:29.785Z,23.00
2018-07-27T20:41:59.479Z,23.00
2018-07-27T20:44:28.752Z,22.90
2018-07-27T20:46:59.265Z,22.90
2018-07-27T20:49:28.174Z,22.80
2018-07-27T20:52:00.665Z,22.70
2018-07-27T20:57:23.870Z,22.60
2018-07-27T20:59:55.474Z,22.50
2018-07-27T21:02:24.516Z,22.40
2018-07-27T21:04:54.249Z,22.40
2018-07-27T21:07:25.324Z,22.30
2018-07-27T21:09:54.763Z,22.30
2018-07-27T21:12:24.647Z,22.20
2018-07-27T21:14:54.912Z,22.20
2018-07-27T21:17:23.790Z,22.20
2018-07-27T21:19:53.514Z,22.10
2018-07-27T21:22:22.544Z,22.10
2018-07-27T21:24:52.552Z,22.10
2018-07-27T21:27:23.619Z,22.20
2018-07-27T21:29:54.143Z,22.10
2018-07-27T21:32:23.610Z,22.10
2018-07-27T21:34:53.621Z,22.10
2018-07-27T21:37:22.944Z,22.10
2018-07-27T21:39:51.760Z,22.10
2018-07-27T21:42:21.204Z,22.10
2018-07-27T21:44:51.521Z,22.10
2018-07-27T21:47:21.195Z,22.10
2018-07-27T21:49:50.103Z,22.10
2018-07-27T21:52:20.163Z,22.10
2018-07-27T21:54:50.588Z,22.00
2018-07-27T21:57:20.413Z,22.00
2018-07-27T21:59:49.389Z,22.00
2018-07-27T22:02:18.285Z,21.90
2018-07-27T22:04:48.345Z,21.80
2018-07-27T22:07:17.284Z,21.80
2018-07-27T22:09:46.266Z,21.70
2018-07-27T22:12:15.122Z,21.70
2018-07-27T22:14:44.340Z,21.60
2018-07-27T22:17:13.557Z,21.60
2018-07-27T22:19:42.716Z,21.60
2018-07-27T22:22:12.542Z,21.60
2018-07-27T22:24:41.817Z,21.60
2018-07-27T22:27:10.857Z,21.60
2018-07-27T22:29:39.782Z,21.60
2018-07-27T22:32:08.622Z,21.50
2018-07-27T22:34:37.822Z,21.50
2018-07-27T22:37:07.345Z,21.50
2018-07-27T22:39:36.617Z,21.50
2018-07-27T22:42:05.926Z,21.50
2018-07-27T22:44:35.390Z,21.40
2018-07-27T22:47:04.448Z,21.40
2018-07-27T22:49:33.261Z,21.30
2018-07-27T22:52:03.978Z,21.30
2018-07-27T22:54:32.797Z,21.30
2018-07-27T22:57:02.710Z,21.20
2018-07-27T22:59:33.209Z,21.20
2018-07-27T23:02:03.762Z,21.20
2018-07-27T23:04:33.137Z,21.20
2018-07-27T23:07:03.277Z,21.10
2018-07-27T23:09:32.720Z,21.10
2018-07-27T23:12:02.941Z,21.10
2018-07-27T23:14:33.290Z,21.10
2018-07-27T23:17:02.937Z,21.10
2018-07-27T23:19:32.253Z,21.00
2018-07-27T23:22:01.352Z,21.00
2018-07-27T23:24:31.034Z,21.00
2018-07-27T23:26:59.837Z,20.90
2018-07-27T23:29:30.009Z,20.90
2018-07-27T23:31:58.892Z,20.80
2018-07-27T23:34:28.570Z,20.80
2018-07-27T23:36:57.730Z,20.80
2018-07-27T23:39:27.465Z,20.70
2018-07-27T23:41:57.452Z,20.70
2018-07-27T23:44:27.730Z,20.70
2018-07-27T23:46:57.153Z,20.70
2018-07-27T23:49:26.530Z,20.70
2018-07-27T23:51:55.943Z,20.70
2018-07-27T23:54:25.636Z,20.70
2018-07-27T23:56:54.526Z,20.70
2018-07-27T23:59:23.776Z,20.70
